Terminal Aerodrome Forecast
Issued by NWS

Home | Current Version | Previous Version | Graphics & Text | Print | Product List | Glossary On
Versions: 1 2 3 4 5 6 7 8 9 10 11 12 13 14
985
FTUS45 KGGW 220525
TAFSDY
TAF
KSDY 220525Z 2206/2306 01009KT P6SM VCSH SCT060 BKN090
     FM220800 35008KT P6SM FEW100
     FM221500 28020G30KT P6SM FEW110
     FM230300 31014G23KT P6SM BKN035=

USA.gov is the U.S. government's official web portal to all federal, state and local government web resources and services.